createdAt,value
2023-01-13T00:00:32.091Z,87.08
2023-01-13T00:01:32.047Z,87.18
2023-01-13T00:02:32.051Z,86.88
2023-01-13T00:03:32.019Z,87.18
2023-01-13T00:04:32.069Z,87.18
2023-01-13T00:05:31.977Z,86.98
2023-01-13T00:06:31.979Z,87.18
2023-01-13T00:07:31.965Z,87.29
2023-01-13T00:08:31.936Z,87.49
2023-01-13T00:09:31.956Z,87.08
2023-01-13T00:10:31.927Z,87.29
2023-01-13T00:11:31.907Z,86.88
2023-01-13T00:12:31.887Z,86.77
2023-01-13T00:13:31.889Z,86.67
2023-01-13T00:14:31.882Z,86.77
2023-01-13T00:15:31.867Z,86.88
2023-01-13T00:16:31.864Z,86.98
2023-01-13T00:17:31.827Z,87.08
2023-01-13T00:18:31.820Z,87.18
2023-01-13T00:19:31.877Z,87.38
2023-01-13T00:20:31.778Z,87.49
2023-01-13T00:21:31.767Z,87.18
2023-01-13T00:22:31.757Z,87.08
2023-01-13T00:23:31.756Z,87.08
2023-01-13T00:24:31.806Z,87.08
2023-01-13T00:25:31.732Z,87.08
2023-01-13T00:26:31.710Z,87.18
2023-01-13T00:27:31.769Z,87.29
2023-01-13T00:28:31.703Z,87.38
2023-01-13T00:29:31.699Z,87.29
2023-01-13T00:30:31.649Z,87.29
2023-01-13T00:31:31.844Z,86.98
2023-01-13T00:32:31.657Z,86.98
2023-01-13T00:33:31.630Z,86.98
2023-01-13T00:34:31.621Z,86.88
2023-01-13T00:35:31.611Z,86.77
2023-01-13T00:36:31.596Z,86.77
2023-01-13T00:37:31.557Z,86.88
2023-01-13T00:38:31.548Z,86.67
2023-01-13T00:39:31.557Z,86.46
2023-01-13T00:40:31.518Z,86.57
2023-01-13T00:41:31.633Z,86.57
2023-01-13T00:42:31.490Z,86.46
2023-01-13T00:43:31.492Z,86.26
2023-01-13T00:44:31.480Z,86.16
2023-01-13T00:45:31.481Z,86.36
2023-01-13T00:46:31.494Z,86.46
2023-01-13T00:47:31.455Z,86.46
2023-01-13T00:48:31.421Z,86.36
2023-01-13T00:49:31.425Z,86.16
2023-01-13T00:50:31.399Z,86.16
2023-01-13T00:51:31.387Z,86.05
2023-01-13T00:52:31.364Z,86.16
2023-01-13T00:53:31.347Z,86.26
2023-01-13T00:54:31.347Z,86.26
2023-01-13T00:55:31.341Z,85.96
2023-01-13T00:56:40.250Z,85.85
2023-01-13T00:57:32.306Z,85.96
2023-01-13T00:58:31.283Z,86.05
2023-01-13T00:59:31.308Z,86.16
2023-01-13T01:00:31.358Z,86.26
2023-01-13T01:01:31.357Z,86.36
2023-01-13T01:02:31.362Z,86.36
2023-01-13T01:03:31.223Z,86.46
2023-01-13T01:04:31.230Z,86.05
2023-01-13T01:05:31.193Z,86.05
2023-01-13T01:06:31.178Z,85.96
2023-01-13T01:07:31.168Z,85.96
2023-01-13T01:08:31.162Z,86.05
2023-01-13T01:09:31.148Z,86.16
2023-01-13T01:10:31.126Z,86.05
2023-01-13T01:11:31.115Z,86.05
2023-01-13T01:12:31.100Z,86.05
2023-01-13T01:13:31.085Z,86.05
2023-01-13T01:14:31.089Z,86.05
2023-01-13T01:15:31.061Z,86.26
2023-01-13T01:16:31.081Z,86.16
2023-01-13T01:17:31.050Z,85.85
2023-01-13T01:18:31.036Z,85.96
2023-01-13T01:19:31.039Z,85.85
2023-01-13T01:20:31.011Z,85.75
2023-01-13T01:21:30.982Z,85.44
2023-01-13T01:22:30.976Z,85.50
2023-01-13T01:23:30.976Z,85.50
2023-01-13T01:24:30.957Z,85.71
2023-01-13T01:25:30.938Z,85.71
2023-01-13T01:26:30.931Z,85.85
2023-01-13T01:27:30.928Z,85.85
2023-01-13T01:28:30.910Z,85.96
2023-01-13T01:29:31.031Z,85.96
2023-01-13T01:30:30.883Z,86.05
2023-01-13T01:31:30.944Z,85.75
2023-01-13T01:32:30.879Z,85.96
2023-01-13T01:33:30.822Z,85.96
2023-01-13T01:34:30.807Z,85.96
2023-01-13T01:35:30.824Z,85.96
2023-01-13T01:36:30.780Z,85.96
2023-01-13T01:37:30.779Z,85.96
2023-01-13T01:38:30.758Z,86.05
2023-01-13T01:39:30.745Z,86.16
2023-01-13T01:40:30.775Z,86.26
2023-01-13T01:41:30.712Z,86.36
2023-01-13T01:42:30.800Z,86.16
2023-01-13T01:43:30.719Z,86.26
2023-01-13T01:44:30.671Z,86.26
2023-01-13T01:45:30.684Z,86.46
2023-01-13T01:46:30.692Z,86.36
2023-01-13T01:47:30.654Z,86.36
2023-01-13T01:48:30.630Z,86.57
2023-01-13T01:49:30.615Z,86.36
2023-01-13T01:50:30.621Z,86.36
2023-01-13T01:51:30.606Z,86.36
2023-01-13T01:52:30.583Z,86.36
2023-01-13T01:53:30.582Z,86.36
2023-01-13T01:54:30.540Z,86.57
2023-01-13T01:55:30.543Z,86.57
2023-01-13T01:56:30.520Z,86.57
2023-01-13T01:57:30.518Z,86.36
2023-01-13T01:58:30.490Z,86.57
2023-01-13T01:59:30.485Z,86.57
2023-01-13T02:00:30.543Z,86.36
2023-01-13T02:01:30.571Z,86.57
2023-01-13T02:02:30.598Z,86.46
2023-01-13T02:03:30.448Z,86.57
2023-01-13T02:04:30.411Z,86.16
2023-01-13T02:05:30.412Z,86.26
2023-01-13T02:06:30.411Z,86.26
2023-01-13T02:07:30.392Z,86.36
2023-01-13T02:08:30.364Z,86.46
2023-01-13T02:09:30.341Z,86.46
2023-01-13T02:10:30.362Z,86.46
2023-01-13T02:11:30.323Z,86.57
2023-01-13T02:12:30.309Z,86.67
2023-01-13T02:13:30.309Z,86.57
2023-01-13T02:14:30.279Z,86.46
2023-01-13T02:15:30.309Z,86.46
2023-01-13T02:16:30.337Z,86.46
2023-01-13T02:17:30.243Z,86.46
2023-01-13T02:18:30.219Z,86.05
2023-01-13T02:19:30.211Z,86.36
2023-01-13T02:20:30.222Z,86.46
2023-01-13T02:21:30.195Z,86.46
2023-01-13T02:22:30.181Z,86.57
2023-01-13T02:23:30.160Z,86.46
2023-01-13T02:24:30.151Z,86.36
2023-01-13T02:25:30.151Z,86.46
2023-01-13T02:26:30.121Z,86.57
2023-01-13T02:27:30.115Z,86.67
2023-01-13T02:28:30.089Z,86.77
2023-01-13T02:29:30.073Z,86.67
2023-01-13T02:30:30.089Z,86.67
2023-01-13T02:31:30.133Z,86.57
2023-01-13T02:32:30.041Z,86.67
2023-01-13T02:33:30.031Z,86.98
2023-01-13T02:34:30.025Z,87.18
2023-01-13T02:35:30.028Z,87.18
2023-01-13T02:36:29.995Z,87.29
2023-01-13T02:37:29.983Z,87.18
2023-01-13T02:38:29.974Z,87.18
2023-01-13T02:39:29.953Z,87.18
2023-01-13T02:40:29.953Z,87.29
2023-01-13T02:41:29.922Z,87.08
2023-01-13T02:42:29.912Z,86.98
2023-01-13T02:43:29.965Z,87.08
2023-01-13T02:44:29.913Z,87.08
2023-01-13T02:45:29.924Z,86.98
2023-01-13T02:46:29.904Z,86.88
2023-01-13T02:47:29.893Z,87.08
2023-01-13T02:48:29.899Z,86.98
2023-01-13T02:49:29.863Z,86.98
2023-01-13T02:50:29.842Z,86.67
2023-01-13T02:51:29.882Z,86.36
2023-01-13T02:52:29.784Z,86.26
2023-01-13T02:53:29.794Z,86.46
2023-01-13T02:54:29.770Z,86.36
2023-01-13T02:55:29.742Z,86.46
2023-01-13T02:56:29.731Z,86.46
2023-01-13T02:57:29.711Z,86.46
2023-01-13T02:58:29.703Z,86.46
2023-01-13T02:59:29.688Z,86.46
2023-01-13T03:00:29.596Z,86.46
2023-01-13T03:01:29.747Z,86.46
2023-01-13T03:02:29.607Z,85.96
2023-01-13T03:03:29.550Z,85.96
2023-01-13T03:04:29.550Z,86.05
2023-01-13T03:05:29.535Z,85.96
2023-01-13T03:06:29.512Z,86.05
2023-01-13T03:07:29.502Z,86.22
2023-01-13T03:08:29.500Z,86.32
2023-01-13T03:09:29.501Z,86.32
2023-01-13T03:10:29.482Z,86.67
2023-01-13T03:11:29.460Z,86.67
2023-01-13T03:12:29.438Z,86.46
2023-01-13T03:13:29.450Z,86.26
2023-01-13T03:14:29.431Z,86.57
2023-01-13T03:15:29.428Z,86.77
2023-01-13T03:16:29.520Z,87.08
2023-01-13T03:17:29.392Z,87.38
2023-01-13T03:18:29.349Z,87.59
2023-01-13T03:19:29.405Z,87.38
2023-01-13T03:20:29.341Z,87.38
2023-01-13T03:21:29.344Z,87.79
2023-01-13T03:22:29.300Z,88.00
2023-01-13T03:23:29.305Z,88.10
2023-01-13T03:24:29.303Z,88.41
2023-01-13T03:25:29.275Z,88.62
2023-01-13T03:26:29.252Z,88.51
2023-01-13T03:27:29.252Z,88.51
2023-01-13T03:28:29.271Z,88.51
2023-01-13T03:29:29.211Z,88.41
2023-01-13T03:30:29.353Z,88.51
2023-01-13T03:31:29.191Z,89.03
2023-01-13T03:32:29.170Z,89.23
2023-01-13T03:33:29.163Z,89.23
2023-01-13T03:34:31.126Z,89.58
2023-01-13T03:35:29.175Z,89.89
2023-01-13T03:36:29.131Z,90.70
2023-01-13T03:37:29.122Z,91.73
2023-01-13T03:38:29.098Z,92.59
2023-01-13T03:39:29.082Z,93.30
2023-01-13T03:40:29.098Z,93.10
2023-01-13T03:41:29.052Z,93.15
2023-01-13T03:42:29.032Z,93.66
2023-01-13T03:43:29.050Z,93.35
2023-01-13T03:44:30.297Z,93.39
2023-01-13T03:45:29.018Z,92.98
2023-01-13T03:46:29.022Z,92.06
2023-01-13T03:47:28.983Z,92.78
2023-01-13T03:48:28.963Z,93.39
2023-01-13T03:49:28.941Z,93.64
2023-01-13T03:50:28.943Z,92.41
2023-01-13T03:51:28.923Z,92.51
2023-01-13T03:52:28.913Z,92.41
2023-01-13T03:53:28.903Z,92.51
2023-01-13T03:54:28.883Z,92.61
2023-01-13T03:55:28.901Z,92.93
2023-01-13T03:56:28.854Z,92.72
2023-01-13T03:57:28.843Z,93.02
2023-01-13T03:58:28.865Z,92.93
2023-01-13T03:59:28.815Z,92.72
2023-01-13T04:00:28.844Z,92.72
2023-01-13T04:01:29.060Z,92.82
2023-01-13T04:02:28.771Z,92.82
2023-01-13T04:03:28.803Z,92.55
2023-01-13T04:04:28.755Z,92.35
2023-01-13T04:05:28.760Z,92.46
2023-01-13T04:06:28.721Z,92.66
2023-01-13T04:07:28.723Z,92.72
2023-01-13T04:08:28.692Z,92.93
2023-01-13T04:09:29.534Z,92.35
2023-01-13T04:10:28.725Z,92.00
2023-01-13T04:11:28.676Z,91.90
2023-01-13T04:12:28.657Z,92.21
2023-01-13T04:13:28.633Z,92.41
2023-01-13T04:14:28.625Z,92.72
2023-01-13T04:15:28.691Z,92.82
2023-01-13T04:16:28.664Z,92.93
2023-01-13T04:17:28.596Z,92.66
2023-01-13T04:18:28.565Z,92.61
2023-01-13T04:19:28.553Z,92.66
2023-01-13T04:20:28.551Z,92.76
2023-01-13T04:21:28.563Z,93.07
2023-01-13T04:22:28.515Z,93.27
2023-01-13T04:23:28.547Z,93.38
2023-01-13T04:24:28.499Z,93.07
2023-01-13T04:25:28.477Z,93.07
2023-01-13T04:26:28.481Z,93.07
2023-01-13T04:27:28.454Z,93.27
2023-01-13T04:28:28.431Z,93.27
2023-01-13T04:29:28.424Z,93.38
2023-01-13T04:30:28.422Z,93.59
2023-01-13T04:31:28.482Z,93.79
2023-01-13T04:32:28.384Z,93.89
2023-01-13T04:33:28.393Z,93.79
2023-01-13T04:34:28.608Z,93.59
2023-01-13T04:35:28.342Z,93.38
2023-01-13T04:36:28.362Z,93.38
2023-01-13T04:37:28.342Z,93.38
2023-01-13T04:38:28.316Z,93.32
2023-01-13T04:39:28.303Z,93.12
2023-01-13T04:40:28.284Z,92.91
2023-01-13T04:41:28.287Z,92.40
2023-01-13T04:42:28.253Z,91.88
2023-01-13T04:43:28.266Z,91.99
2023-01-13T04:44:28.239Z,92.08
2023-01-13T04:45:28.224Z,91.67
2023-01-13T04:46:28.305Z,91.06
2023-01-13T04:47:28.195Z,88.49
2023-01-13T04:48:28.173Z,88.90
2023-01-13T04:49:28.163Z,89.42
2023-01-13T04:50:28.157Z,89.01
2023-01-13T04:51:28.184Z,88.49
2023-01-13T04:52:28.143Z,88.29
2023-01-13T04:53:28.133Z,89.11
2023-01-13T04:54:28.106Z,89.01
2023-01-13T04:55:28.094Z,88.59
2023-01-13T04:56:28.097Z,88.70
2023-01-13T04:57:28.057Z,88.80
2023-01-13T04:58:28.068Z,89.21
2023-01-13T04:59:28.033Z,89.42
2023-01-13T05:00:28.034Z,89.93
2023-01-13T05:01:28.078Z,89.93
2023-01-13T05:02:28.054Z,89.62
2023-01-13T05:03:27.997Z,89.62
2023-01-13T05:04:28.009Z,90.03
2023-01-13T05:05:27.953Z,89.83
2023-01-13T05:06:27.943Z,89.52
2023-01-13T05:07:27.945Z,89.11
2023-01-13T05:08:27.934Z,89.31
2023-01-13T05:09:27.904Z,89.46
2023-01-13T05:10:27.886Z,89.25
2023-01-13T05:11:27.881Z,89.56
2023-01-13T05:12:27.902Z,89.25
2023-01-13T05:13:27.847Z,89.09
2023-01-13T05:14:27.835Z,89.60
2023-01-13T05:15:27.837Z,90.42
2023-01-13T05:16:27.859Z,91.35
2023-01-13T05:17:27.805Z,89.50
2023-01-13T05:18:27.785Z,87.75
2023-01-13T05:19:27.766Z,88.27
2023-01-13T05:20:27.757Z,88.47
2023-01-13T05:21:27.770Z,88.98
2023-01-13T05:22:27.753Z,89.29
2023-01-13T05:23:27.723Z,88.98
2023-01-13T05:24:27.706Z,87.04
2023-01-13T05:25:27.686Z,86.83
2023-01-13T05:26:27.665Z,87.75
2023-01-13T05:27:27.695Z,88.78
2023-01-13T05:28:27.675Z,88.37
2023-01-13T05:29:27.625Z,87.38
2023-01-13T05:30:27.625Z,86.77
2023-01-13T05:31:27.704Z,87.18
2023-01-13T05:32:27.615Z,86.25
2023-01-13T05:33:27.593Z,85.84
2023-01-13T05:34:27.577Z,86.11
2023-01-13T05:35:27.554Z,85.28
2023-01-13T05:36:27.558Z,85.60
2023-01-13T05:37:27.553Z,86.52
2023-01-13T05:38:27.516Z,87.04
2023-01-13T05:39:27.493Z,87.24
2023-01-13T05:40:27.536Z,87.75
2023-01-13T05:41:27.479Z,87.45
2023-01-13T05:42:27.496Z,87.75
2023-01-13T05:43:27.469Z,88.37
2023-01-13T05:44:27.457Z,88.57
2023-01-13T05:45:27.418Z,88.47
2023-01-13T05:46:27.511Z,88.17
2023-01-13T05:47:27.423Z,87.24
2023-01-13T05:48:27.383Z,87.13
2023-01-13T05:49:27.375Z,93.87
2023-01-13T05:50:27.357Z,99.18
2023-01-13T05:51:27.346Z,99.85
2023-01-13T05:52:27.355Z,99.04
2023-01-13T05:53:27.334Z,97.61
2023-01-13T05:54:27.315Z,96.33
2023-01-13T05:55:27.298Z,94.04
2023-01-13T05:56:27.293Z,91.99
2023-01-13T05:57:27.276Z,89.29
2023-01-13T05:58:27.296Z,87.85
2023-01-13T05:59:27.277Z,89.29
2023-01-13T06:00:27.313Z,87.10
2023-01-13T06:01:27.258Z,87.30
2023-01-13T06:02:27.210Z,86.76
2023-01-13T06:03:27.204Z,85.32
2023-01-13T06:04:27.222Z,80.83
2023-01-13T06:05:27.166Z,78.20
2023-01-13T06:06:27.154Z,78.45
2023-01-13T06:07:27.145Z,79.24
2023-01-13T06:08:27.137Z,79.96
2023-01-13T06:09:27.106Z,81.43
2023-01-13T06:10:27.106Z,83.10
2023-01-13T06:11:27.086Z,84.06
2023-01-13T06:12:27.076Z,84.61
2023-01-13T06:13:27.072Z,84.92
2023-01-13T06:14:27.046Z,84.96
2023-01-13T06:15:27.032Z,84.96
2023-01-13T06:16:27.090Z,85.38
2023-01-13T06:17:27.035Z,86.24
2023-01-13T06:18:27.005Z,87.05
2023-01-13T06:19:26.967Z,87.37
2023-01-13T06:20:26.965Z,87.30
2023-01-13T06:21:26.949Z,87.10
2023-01-13T06:22:26.951Z,87.40
2023-01-13T06:23:26.939Z,87.71
2023-01-13T06:24:26.917Z,87.71
2023-01-13T06:25:26.887Z,87.82
2023-01-13T06:26:26.889Z,88.06
2023-01-13T06:27:27.139Z,88.06
2023-01-13T06:28:26.888Z,88.17
2023-01-13T06:29:26.825Z,88.47
2023-01-13T06:30:26.844Z,88.47
2023-01-13T06:31:28.006Z,88.06
2023-01-13T06:32:26.848Z,87.96
2023-01-13T06:33:26.836Z,87.75
2023-01-13T06:34:26.793Z,87.65
2023-01-13T06:35:26.765Z,87.96
2023-01-13T06:36:26.783Z,88.06
2023-01-13T06:37:26.747Z,88.06
2023-01-13T06:38:26.743Z,88.51
2023-01-13T06:39:26.715Z,88.92
2023-01-13T06:40:26.683Z,89.03
2023-01-13T06:41:26.690Z,89.03
2023-01-13T06:42:26.675Z,89.13
2023-01-13T06:43:26.700Z,89.48
2023-01-13T06:44:26.660Z,89.79
2023-01-13T06:45:26.631Z,90.09
2023-01-13T06:46:26.641Z,90.30
2023-01-13T06:47:26.618Z,90.55
2023-01-13T06:48:26.614Z,90.86
2023-01-13T06:49:26.618Z,91.06
2023-01-13T06:50:26.558Z,91.38
2023-01-13T06:51:26.563Z,91.38
2023-01-13T06:52:26.538Z,91.38
2023-01-13T06:53:26.552Z,91.47
2023-01-13T06:54:27.824Z,91.27
2023-01-13T06:55:26.504Z,91.06
2023-01-13T06:56:26.499Z,90.34
2023-01-13T06:57:26.467Z,89.73
2023-01-13T06:58:26.466Z,89.62
2023-01-13T06:59:26.468Z,88.96
2023-01-13T07:00:26.496Z,88.45
2023-01-13T07:01:26.490Z,88.35
2023-01-13T07:02:26.492Z,88.24
2023-01-13T07:03:26.394Z,88.04
2023-01-13T07:04:26.426Z,87.84
2023-01-13T07:05:26.378Z,87.49
2023-01-13T07:06:26.412Z,87.49
2023-01-13T07:07:26.342Z,87.38
2023-01-13T07:08:26.339Z,87.28
2023-01-13T07:09:26.328Z,87.18
2023-01-13T07:10:26.308Z,87.07
2023-01-13T07:11:26.295Z,87.38
2023-01-13T07:12:26.277Z,87.90
2023-01-13T07:13:26.268Z,88.20
2023-01-13T07:14:26.269Z,88.31
2023-01-13T07:15:26.256Z,87.49
2023-01-13T07:16:26.294Z,86.97
2023-01-13T07:17:26.279Z,86.56
2023-01-13T07:18:26.205Z,86.46
2023-01-13T07:19:26.255Z,86.35
2023-01-13T07:20:26.179Z,86.35
2023-01-13T07:21:26.154Z,86.25
2023-01-13T07:22:26.137Z,86.05
2023-01-13T07:23:26.112Z,85.43
2023-01-13T07:24:26.128Z,85.02
2023-01-13T07:25:26.084Z,85.02
2023-01-13T07:26:26.085Z,85.43
2023-01-13T07:27:26.068Z,85.53
2023-01-13T07:28:26.052Z,85.43
2023-01-13T07:29:26.087Z,85.22
2023-01-13T07:30:26.041Z,84.71
2023-01-13T07:31:26.077Z,84.40
2023-01-13T07:32:26.019Z,84.81
2023-01-13T07:33:25.985Z,84.81
2023-01-13T07:34:26.009Z,84.91
2023-01-13T07:35:25.984Z,85.08
2023-01-13T07:36:25.972Z,85.12
2023-01-13T07:37:25.946Z,84.67
2023-01-13T07:38:25.945Z,84.88
2023-01-13T07:39:25.966Z,84.67
2023-01-13T07:40:25.920Z,84.47
2023-01-13T07:41:25.894Z,84.47
2023-01-13T07:42:25.886Z,84.36
2023-01-13T07:43:25.970Z,84.36
2023-01-13T07:44:25.879Z,84.47
2023-01-13T07:45:25.848Z,84.67
2023-01-13T07:46:25.838Z,84.67
2023-01-13T07:47:25.807Z,84.26
2023-01-13T07:48:25.799Z,84.26
2023-01-13T07:49:25.807Z,84.26
2023-01-13T07:50:25.786Z,84.36
2023-01-13T07:51:25.763Z,84.56
2023-01-13T07:52:25.757Z,84.67
2023-01-13T07:53:25.733Z,84.56
2023-01-13T07:54:39.570Z,84.67
2023-01-13T07:55:26.702Z,84.67
2023-01-13T07:56:25.870Z,84.16
2023-01-13T07:57:25.686Z,83.95
2023-01-13T07:58:25.678Z,83.95
2023-01-13T07:59:25.722Z,84.05
2023-01-13T08:00:25.645Z,83.95
2023-01-13T08:01:25.834Z,84.16
2023-01-13T08:02:25.812Z,84.36
2023-01-13T08:03:25.625Z,84.26
2023-01-13T08:04:25.627Z,83.85
2023-01-13T08:05:25.588Z,84.05
2023-01-13T08:06:25.565Z,84.16
2023-01-13T08:07:25.579Z,84.16
2023-01-13T08:08:25.587Z,84.36
2023-01-13T08:09:25.563Z,84.56
2023-01-13T08:10:25.536Z,84.36
2023-01-13T08:11:25.507Z,83.85
2023-01-13T08:12:25.510Z,84.16
2023-01-13T08:13:26.005Z,84.16
2023-01-13T08:14:25.500Z,83.99
2023-01-13T08:15:25.453Z,83.99
2023-01-13T08:16:25.463Z,83.58
2023-01-13T08:17:25.471Z,83.68
2023-01-13T08:18:25.407Z,83.99
2023-01-13T08:19:25.412Z,83.99
2023-01-13T08:20:25.477Z,83.89
2023-01-13T08:21:25.369Z,83.78
2023-01-13T08:22:25.361Z,83.48
2023-01-13T08:23:25.337Z,83.48
2023-01-13T08:24:25.336Z,83.48
2023-01-13T08:25:25.346Z,83.37
2023-01-13T08:26:25.316Z,83.27
2023-01-13T08:27:25.290Z,83.37
2023-01-13T08:28:25.285Z,83.17
2023-01-13T08:29:25.272Z,83.27
2023-01-13T08:30:25.392Z,83.27
2023-01-13T08:31:25.292Z,82.86
2023-01-13T08:32:25.230Z,82.04
2023-01-13T08:33:25.217Z,82.31
2023-01-13T08:34:25.219Z,82.51
2023-01-13T08:35:25.225Z,82.92
2023-01-13T08:36:25.180Z,82.31
2023-01-13T08:37:25.149Z,82.00
2023-01-13T08:38:25.190Z,81.90
2023-01-13T08:39:25.131Z,81.90
2023-01-13T08:40:25.193Z,81.69
2023-01-13T08:41:25.090Z,81.59
2023-01-13T08:42:25.128Z,81.28
2023-01-13T08:43:25.059Z,81.55
2023-01-13T08:44:25.067Z,81.65
2023-01-13T08:45:25.341Z,80.73
2023-01-13T08:46:25.137Z,80.11
2023-01-13T08:47:25.021Z,80.42
2023-01-13T08:48:25.036Z,80.93
2023-01-13T08:49:24.989Z,80.38
2023-01-13T08:50:25.087Z,80.07
2023-01-13T08:51:24.958Z,80.07
2023-01-13T08:52:25.017Z,79.56
2023-01-13T08:53:24.957Z,79.15
2023-01-13T08:54:24.938Z,78.74
2023-01-13T08:55:25.059Z,78.85
2023-01-13T08:56:24.920Z,78.02
2023-01-13T08:57:24.959Z,78.74
2023-01-13T08:58:24.968Z,77.71
2023-01-13T08:59:24.874Z,77.61
2023-01-13T09:00:24.922Z,78.23
2023-01-13T09:01:24.990Z,77.51
2023-01-13T09:02:24.837Z,76.79
2023-01-13T09:03:24.820Z,77.10
2023-01-13T09:04:24.877Z,76.48
2023-01-13T09:05:24.808Z,76.58
2023-01-13T09:06:24.772Z,76.68
2023-01-13T09:07:24.769Z,76.07
2023-01-13T09:08:24.837Z,76.68
2023-01-13T09:09:24.720Z,76.48
2023-01-13T09:10:24.734Z,75.87
2023-01-13T09:11:24.718Z,76.17
2023-01-13T09:12:24.690Z,76.38
2023-01-13T09:13:24.697Z,75.56
2023-01-13T09:14:24.668Z,75.87
2023-01-13T09:15:24.736Z,76.79
2023-01-13T09:16:24.649Z,77.00
2023-01-13T09:17:24.666Z,77.51
2023-01-13T09:18:24.853Z,75.97
2023-01-13T09:19:24.608Z,75.35
2023-01-13T09:20:24.580Z,75.35
2023-01-13T09:21:24.593Z,75.32
2023-01-13T09:22:24.550Z,75.42
2023-01-13T09:23:24.559Z,75.01
2023-01-13T09:24:24.528Z,74.29
2023-01-13T09:25:24.531Z,73.68
2023-01-13T09:26:24.528Z,73.36
2023-01-13T09:27:24.500Z,75.21
2023-01-13T09:28:24.495Z,74.91
2023-01-13T09:29:24.479Z,73.88
2023-01-13T09:30:24.473Z,73.78
2023-01-13T09:31:24.505Z,74.08
2023-01-13T09:32:24.429Z,74.19
2023-01-13T09:33:24.425Z,72.44
2023-01-13T09:34:24.410Z,72.44
2023-01-13T09:35:24.381Z,72.65
2023-01-13T09:36:24.383Z,73.33
2023-01-13T09:37:24.394Z,74.26
2023-01-13T09:38:24.391Z,72.51
2023-01-13T09:39:24.363Z,72.31
2023-01-13T09:40:24.344Z,72.10
2023-01-13T09:41:24.444Z,72.10
2023-01-13T09:42:24.292Z,72.31
2023-01-13T09:43:24.291Z,73.44
2023-01-13T09:44:24.289Z,72.00
2023-01-13T09:45:24.286Z,71.90
2023-01-13T09:46:24.418Z,70.67
2023-01-13T09:47:24.280Z,71.69
2023-01-13T09:48:24.229Z,71.39
2023-01-13T09:49:24.257Z,71.59
2023-01-13T09:50:24.219Z,70.56
2023-01-13T09:51:24.225Z,71.59
2023-01-13T09:52:26.832Z,70.56
2023-01-13T09:53:24.175Z,70.15
2023-01-13T09:54:24.151Z,71.39
2023-01-13T09:55:24.421Z,71.28
2023-01-13T09:56:24.150Z,70.67
2023-01-13T09:57:24.122Z,71.66
2023-01-13T09:58:24.100Z,72.07
2023-01-13T09:59:24.091Z,70.73
2023-01-13T10:00:24.097Z,70.53
2023-01-13T10:01:24.106Z,70.22
2023-01-13T10:02:24.350Z,71.11
2023-01-13T10:03:24.104Z,72.34
2023-01-13T10:04:24.030Z,71.73
2023-01-13T10:05:24.018Z,70.84
2023-01-13T10:06:24.031Z,71.01
2023-01-13T10:07:23.972Z,70.53
2023-01-13T10:08:23.952Z,70.43
2023-01-13T10:09:23.972Z,69.81
2023-01-13T10:10:23.940Z,70.22
2023-01-13T10:11:23.962Z,69.51
2023-01-13T10:12:23.921Z,69.71
2023-01-13T10:13:23.910Z,70.43
2023-01-13T10:14:23.902Z,70.64
2023-01-13T10:15:23.881Z,70.02
2023-01-13T10:16:23.966Z,69.23
2023-01-13T10:17:23.876Z,70.05
2023-01-13T10:18:23.835Z,69.95
2023-01-13T10:19:24.371Z,71.59
2023-01-13T10:20:23.962Z,71.28
2023-01-13T10:21:23.820Z,70.53
2023-01-13T10:22:23.850Z,69.92
2023-01-13T10:23:23.789Z,69.81
2023-01-13T10:24:23.855Z,70.64
2023-01-13T10:25:23.743Z,71.25
2023-01-13T10:26:23.790Z,71.25
2023-01-13T10:27:23.743Z,70.94
2023-01-13T10:28:23.701Z,70.73
2023-01-13T10:29:23.703Z,70.64
2023-01-13T10:30:23.699Z,69.37
2023-01-13T10:31:24.129Z,67.97
2023-01-13T10:32:23.729Z,69.20
2023-01-13T10:33:24.858Z,69.61
2023-01-13T10:34:23.625Z,69.10
2023-01-13T10:35:23.633Z,68.89
2023-01-13T10:36:23.634Z,70.29
2023-01-13T10:37:23.609Z,69.47
2023-01-13T10:38:23.594Z,69.37
2023-01-13T10:39:23.571Z,69.37
2023-01-13T10:40:23.546Z,69.89
2023-01-13T10:41:23.554Z,69.57
2023-01-13T10:42:23.544Z,70.09
2023-01-13T10:43:23.530Z,70.09
2023-01-13T10:44:23.594Z,69.89
2023-01-13T10:45:23.503Z,69.57
2023-01-13T10:46:23.517Z,68.96
2023-01-13T10:47:23.472Z,69.47
2023-01-13T10:48:23.441Z,69.06
2023-01-13T10:49:23.457Z,70.70
2023-01-13T10:50:23.435Z,69.37
2023-01-13T10:51:23.411Z,69.27
2023-01-13T10:52:23.531Z,68.76
2023-01-13T10:53:23.382Z,69.27
2023-01-13T10:54:23.393Z,69.13
2023-01-13T10:55:23.371Z,68.73
2023-01-13T10:56:23.356Z,69.03
2023-01-13T10:57:23.389Z,69.03
2023-01-13T10:58:23.301Z,69.65
2023-01-13T10:59:23.357Z,68.52
2023-01-13T11:00:23.283Z,69.03
2023-01-13T11:01:23.413Z,67.90
2023-01-13T11:02:26.526Z,67.29
2023-01-13T11:03:23.260Z,67.80
2023-01-13T11:04:23.305Z,67.08
2023-01-13T11:05:23.249Z,68.41
2023-01-13T11:06:23.263Z,68.21
2023-01-13T11:07:23.223Z,68.18
2023-01-13T11:08:23.195Z,68.38
2023-01-13T11:09:23.165Z,69.31
2023-01-13T11:10:23.169Z,68.38
2023-01-13T11:11:23.150Z,67.70
2023-01-13T11:12:23.144Z,67.80
2023-01-13T11:13:23.122Z,68.93
2023-01-13T11:15:16.587Z,68.28
2023-01-13T11:16:16.640Z,68.18
2023-01-13T11:17:16.567Z,67.29
2023-01-13T11:18:16.581Z,67.49
2023-01-13T11:19:16.537Z,67.08
2023-01-13T11:20:16.547Z,67.90
2023-01-13T11:21:16.506Z,67.49
2023-01-13T11:22:16.491Z,68.21
2023-01-13T11:23:16.487Z,68.32
2023-01-13T11:24:16.458Z,69.85
2023-01-13T11:25:16.445Z,68.96
2023-01-13T11:26:16.457Z,68.65
2023-01-13T11:27:16.427Z,68.45
2023-01-13T11:28:16.514Z,68.65
2023-01-13T11:29:16.387Z,69.27
2023-01-13T11:30:16.473Z,68.45
2023-01-13T11:31:16.407Z,68.21
2023-01-13T11:32:16.367Z,68.14
2023-01-13T11:33:16.376Z,68.01
2023-01-13T11:34:16.351Z,67.90
2023-01-13T11:35:16.327Z,68.11
2023-01-13T11:36:17.771Z,68.32
2023-01-13T11:37:16.297Z,68.11
2023-01-13T11:38:16.351Z,67.80
2023-01-13T11:39:16.257Z,69.13
2023-01-13T11:40:16.323Z,67.90
2023-01-13T11:41:16.237Z,67.60
2023-01-13T11:42:16.237Z,66.67
2023-01-13T11:43:16.226Z,66.88
2023-01-13T11:44:16.218Z,67.60
2023-01-13T11:45:16.204Z,67.26
2023-01-13T11:46:16.328Z,66.75
2023-01-13T11:47:16.156Z,67.87
2023-01-13T11:48:16.307Z,75.82
2023-01-13T11:49:16.125Z,75.59
2023-01-13T11:50:16.209Z,78.41
2023-01-13T11:51:16.247Z,75.41
2023-01-13T11:52:16.111Z,75.37
2023-01-13T11:53:16.120Z,72.17
2023-01-13T11:54:16.068Z,73.98
2023-01-13T11:55:16.048Z,73.13
2023-01-13T11:56:16.040Z,72.69
2023-01-13T11:57:16.029Z,70.75
2023-01-13T11:58:16.130Z,70.92
2023-01-13T11:59:16.021Z,66.54
2023-01-13T12:00:15.991Z,66.64
2023-01-13T12:01:16.036Z,64.50
2023-01-13T12:02:16.017Z,70.17
2023-01-13T12:03:15.983Z,66.30
2023-01-13T12:04:15.928Z,64.78
2023-01-13T12:05:16.012Z,64.87
2023-01-13T12:06:15.914Z,64.78
2023-01-13T12:07:15.898Z,64.47
2023-01-13T12:08:16.026Z,64.57
2023-01-13T12:09:15.881Z,65.08
2023-01-13T12:10:15.871Z,65.39
2023-01-13T12:11:15.850Z,63.45
2023-01-13T12:12:15.832Z,61.65
2023-01-13T12:13:15.872Z,62.77
2023-01-13T12:14:15.825Z,63.48
2023-01-13T12:15:15.798Z,63.18
2023-01-13T12:16:15.863Z,62.77
2023-01-13T12:17:15.769Z,61.54
2023-01-13T12:18:15.937Z,60.38
2023-01-13T12:19:15.747Z,63.03
2023-01-13T12:20:15.729Z,60.48
2023-01-13T12:21:15.711Z,61.94
2023-01-13T12:22:15.700Z,61.35
2023-01-13T12:23:15.695Z,62.10
2023-01-13T12:24:15.688Z,62.02
2023-01-13T12:25:15.662Z,61.65
2023-01-13T12:26:15.869Z,63.21
2023-01-13T12:27:15.641Z,63.24
2023-01-13T12:28:15.650Z,63.85
2023-01-13T12:29:15.620Z,64.80
2023-01-13T12:30:15.593Z,63.98
2023-01-13T12:31:15.594Z,64.12
2023-01-13T12:32:15.589Z,64.12
2023-01-13T12:33:17.956Z,64.62
2023-01-13T12:34:15.560Z,65.14
2023-01-13T12:35:15.530Z,65.17
2023-01-13T12:36:15.533Z,65.58
2023-01-13T12:37:15.499Z,66.19
2023-01-13T12:38:15.489Z,66.71
2023-01-13T12:39:15.505Z,65.96
2023-01-13T12:40:15.470Z,65.34
2023-01-13T12:41:15.451Z,65.34
2023-01-13T12:42:15.446Z,65.24
2023-01-13T12:43:15.426Z,65.45
2023-01-13T12:44:15.430Z,65.75
2023-01-13T12:45:16.874Z,66.78
2023-01-13T12:46:15.413Z,66.37
2023-01-13T12:47:15.368Z,66.27
2023-01-13T12:48:15.360Z,66.78
2023-01-13T12:49:15.381Z,66.16
2023-01-13T12:50:15.335Z,65.55
2023-01-13T12:51:17.066Z,66.47
2023-01-13T12:52:15.335Z,66.03
2023-01-13T12:53:15.306Z,66.13